sensor_id;sensor_type;location;lat;lon;timestamp;pressure;altitude;pressure_sealevel;temperature;humidity
64827;BME280;51265;53.972;12.286;2023-03-03T00:00:00;101661.94;;;-1.50;100.00
64827;BME280;51265;53.972;12.286;2023-03-03T00:02:38;101664.81;;;-1.52;100.00
64827;BME280;51265;53.972;12.286;2023-03-03T00:05:05;101657.63;;;-1.44;100.00
64827;BME280;51265;53.972;12.286;2023-03-03T00:07:32;101660.19;;;-1.36;100.00
64827;BME280;51265;53.972;12.286;2023-03-03T00:09:58;101657.81;;;-1.46;100.00
64827;BME280;51265;53.972;12.286;2023-03-03T00:12:27;101673.44;;;-1.63;100.00
64827;BME280;51265;53.972;12.286;2023-03-03T00:14:53;101670.09;;;-1.65;100.00
64827;BME280;51265;53.972;12.286;2023-03-03T00:17:22;101674.22;;;-1.69;100.00
64827;BME280;51265;53.972;12.286;2023-03-03T00:19:49;101674.22;;;-1.69;100.00
64827;BME280;51265;53.972;12.286;2023-03-03T00:22:30;101669.72;;;-1.62;100.00
64827;BME280;51265;53.972;12.286;2023-03-03T00:25:25;101675.25;;;-1.70;100.00
64827;BME280;51265;53.972;12.286;2023-03-03T00:27:52;101672.34;;;-1.68;100.00
64827;BME280;51265;53.972;12.286;2023-03-03T00:30:24;101675.00;;;-1.75;100.00
64827;BME280;51265;53.972;12.286;2023-03-03T00:32:52;101673.28;;;-1.76;100.00
64827;BME280;51265;53.972;12.286;2023-03-03T00:35:27;101674.53;;;-1.79;100.00
64827;BME280;51265;53.972;12.286;2023-03-03T00:37:57;101675.75;;;-1.81;100.00
64827;BME280;51265;53.972;12.286;2023-03-03T00:40:30;101673.03;;;-1.81;100.00
64827;BME280;51265;53.972;12.286;2023-03-03T00:42:59;101669.13;;;-1.79;100.00
64827;BME280;51265;53.972;12.286;2023-03-03T00:45:58;101688.63;;;-1.83;100.00
64827;BME280;51265;53.972;12.286;2023-03-03T00:48:30;101677.34;;;-1.87;100.00
64827;BME280;51265;53.972;12.286;2023-03-03T00:51:30;101682.56;;;-1.85;100.00
64827;BME280;51265;53.972;12.286;2023-03-03T00:53:59;101680.88;;;-1.86;100.00
64827;BME280;51265;53.972;12.286;2023-03-03T00:56:25;101682.66;;;-1.93;100.00
64827;BME280;51265;53.972;12.286;2023-03-03T00:58:52;101672.78;;;-1.86;100.00
64827;BME280;51265;53.972;12.286;2023-03-03T01:01:21;101672.78;;;-1.86;100.00
64827;BME280;51265;53.972;12.286;2023-03-03T01:03:51;101665.91;;;-1.67;100.00
64827;BME280;51265;53.972;12.286;2023-03-03T01:06:17;101671.84;;;-1.57;100.00
64827;BME280;51265;53.972;12.286;2023-03-03T01:08:43;101667.66;;;-1.60;100.00
64827;BME280;51265;53.972;12.286;2023-03-03T01:11:18;101660.19;;;-1.58;100.00
64827;BME280;51265;53.972;12.286;2023-03-03T01:13:47;101663.22;;;-1.46;100.00
64827;BME280;51265;53.972;12.286;2023-03-03T01:16:14;101661.06;;;-1.51;100.00
64827;BME280;51265;53.972;12.286;2023-03-03T01:18:40;101659.03;;;-1.48;100.00
64827;BME280;51265;53.972;12.286;2023-03-03T01:21:08;101656.72;;;-1.52;100.00
64827;BME280;51265;53.972;12.286;2023-03-03T01:23:35;101656.31;;;-1.48;100.00
64827;BME280;51265;53.972;12.286;2023-03-03T01:26:03;101653.13;;;-1.59;100.00
64827;BME280;51265;53.972;12.286;2023-03-03T01:28:29;101644.81;;;-1.57;100.00
64827;BME280;51265;53.972;12.286;2023-03-03T01:31:00;101653.63;;;-1.48;100.00
64827;BME280;51265;53.972;12.286;2023-03-03T01:33:27;101648.09;;;-1.40;100.00
64827;BME280;51265;53.972;12.286;2023-03-03T01:35:54;101647.50;;;-1.36;100.00
64827;BME280;51265;53.972;12.286;2023-03-03T01:38:20;101653.59;;;-1.27;100.00
64827;BME280;51265;53.972;12.286;2023-03-03T01:40:52;101642.47;;;-1.39;100.00
64827;BME280;51265;53.972;12.286;2023-03-03T01:43:19;101643.38;;;-1.32;100.00
64827;BME280;51265;53.972;12.286;2023-03-03T01:48:18;101650.50;;;-1.24;100.00
64827;BME280;51265;53.972;12.286;2023-03-03T01:50:56;101655.53;;;-1.21;100.00
64827;BME280;51265;53.972;12.286;2023-03-03T01:55:58;101663.66;;;-1.21;100.00
64827;BME280;51265;53.972;12.286;2023-03-03T01:58:35;101666.72;;;-1.24;100.00
64827;BME280;51265;53.972;12.286;2023-03-03T02:01:08;101663.00;;;-1.23;100.00
64827;BME280;51265;53.972;12.286;2023-03-03T02:03:36;101655.13;;;-1.18;100.00
64827;BME280;51265;53.972;12.286;2023-03-03T02:06:06;101652.72;;;-1.06;100.00
64827;BME280;51265;53.972;12.286;2023-03-03T02:08:39;101644.84;;;-1.01;100.00
64827;BME280;51265;53.972;12.286;2023-03-03T02:11:09;101653.84;;;-0.94;100.00
64827;BME280;51265;53.972;12.286;2023-03-03T02:13:36;101645.72;;;-0.94;100.00
64827;BME280;51265;53.972;12.286;2023-03-03T02:16:02;101629.59;;;-1.09;100.00
64827;BME280;51265;53.972;12.286;2023-03-03T02:18:28;101633.34;;;-1.10;100.00
64827;BME280;51265;53.972;12.286;2023-03-03T02:21:06;101629.34;;;-1.20;100.00
64827;BME280;51265;53.972;12.286;2023-03-03T02:26:26;101634.03;;;-1.01;100.00
64827;BME280;51265;53.972;12.286;2023-03-03T02:28:59;101637.19;;;-0.97;100.00
64827;BME280;51265;53.972;12.286;2023-03-03T02:31:33;101643.63;;;-0.98;100.00
64827;BME280;51265;53.972;12.286;2023-03-03T02:34:00;101623.25;;;-0.94;100.00
64827;BME280;51265;53.972;12.286;2023-03-03T02:36:29;101628.59;;;-1.08;100.00
64827;BME280;51265;53.972;12.286;2023-03-03T02:44:15;101623.88;;;-0.99;100.00
64827;BME280;51265;53.972;12.286;2023-03-03T02:46:44;101632.63;;;-1.25;100.00
64827;BME280;51265;53.972;12.286;2023-03-03T02:49:17;101627.41;;;-1.27;100.00
64827;BME280;51265;53.972;12.286;2023-03-03T02:51:43;101623.50;;;-1.17;100.00
64827;BME280;51265;53.972;12.286;2023-03-03T02:54:11;101624.38;;;-1.17;100.00
64827;BME280;51265;53.972;12.286;2023-03-03T02:56:38;101619.63;;;-1.36;100.00
64827;BME280;51265;53.972;12.286;2023-03-03T02:59:05;101615.97;;;-1.29;100.00
64827;BME280;51265;53.972;12.286;2023-03-03T03:01:36;101617.28;;;-1.18;100.00
64827;BME280;51265;53.972;12.286;2023-03-03T03:04:10;101618.22;;;-1.04;100.00
64827;BME280;51265;53.972;12.286;2023-03-03T03:06:42;101610.34;;;-0.99;100.00
64827;BME280;51265;53.972;12.286;2023-03-03T03:09:11;101618.63;;;-1.01;100.00
64827;BME280;51265;53.972;12.286;2023-03-03T03:11:38;101611.19;;;-0.98;100.00
64827;BME280;51265;53.972;12.286;2023-03-03T03:14:07;101610.88;;;-1.10;100.00
64827;BME280;51265;53.972;12.286;2023-03-03T03:16:34;101610.78;;;-0.95;100.00
64827;BME280;51265;53.972;12.286;2023-03-03T03:19:01;101603.78;;;-0.83;100.00
64827;BME280;51265;53.972;12.286;2023-03-03T03:21:29;101595.91;;;-0.78;100.00
64827;BME280;51265;53.972;12.286;2023-03-03T03:23:59;101581.28;;;-0.90;100.00
64827;BME280;51265;53.972;12.286;2023-03-03T03:26:26;101577.53;;;-0.89;100.00
64827;BME280;51265;53.972;12.286;2023-03-03T03:28:52;101578.72;;;-0.98;100.00
64827;BME280;51265;53.972;12.286;2023-03-03T03:31:20;101576.47;;;-0.88;100.00
64827;BME280;51265;53.972;12.286;2023-03-03T03:33:47;101566.94;;;-0.84;100.00
64827;BME280;51265;53.972;12.286;2023-03-03T03:36:15;101552.97;;;-0.94;100.00
64827;BME280;51265;53.972;12.286;2023-03-03T03:38:42;101559.19;;;-0.94;100.00
64827;BME280;51265;53.972;12.286;2023-03-03T03:41:10;101567.75;;;-0.90;100.00
64827;BME280;51265;53.972;12.286;2023-03-03T03:43:38;101551.28;;;-0.95;100.00
64827;BME280;51265;53.972;12.286;2023-03-03T03:46:05;101563.28;;;-1.05;100.00
64827;BME280;51265;53.972;12.286;2023-03-03T03:48:32;101568.22;;;-1.15;100.00
64827;BME280;51265;53.972;12.286;2023-03-03T03:51:00;101568.16;;;-1.21;100.00
64827;BME280;51265;53.972;12.286;2023-03-03T03:53:27;101574.03;;;-1.18;100.00
64827;BME280;51265;53.972;12.286;2023-03-03T03:55:54;101570.56;;;-1.40;100.00
64827;BME280;51265;53.972;12.286;2023-03-03T03:58:20;101573.03;;;-1.38;100.00
64827;BME280;51265;53.972;12.286;2023-03-03T04:00:53;101574.44;;;-1.21;100.00
64827;BME280;51265;53.972;12.286;2023-03-03T04:03:20;101582.78;;;-1.16;100.00
64827;BME280;51265;53.972;12.286;2023-03-03T04:05:48;101574.00;;;-1.24;100.00
64827;BME280;51265;53.972;12.286;2023-03-03T04:08:15;101576.00;;;-1.33;100.00
64827;BME280;51265;53.972;12.286;2023-03-03T04:10:42;101568.91;;;-1.34;100.00
64827;BME280;51265;53.972;12.286;2023-03-03T04:13:10;101566.13;;;-1.19;100.00
64827;BME280;51265;53.972;12.286;2023-03-03T04:15:36;101567.03;;;-1.06;100.00
64827;BME280;51265;53.972;12.286;2023-03-03T04:18:03;101557.41;;;-1.15;100.00
64827;BME280;51265;53.972;12.286;2023-03-03T04:20:30;101554.81;;;-0.95;100.00
64827;BME280;51265;53.972;12.286;2023-03-03T04:22:56;101563.22;;;-1.18;100.00
64827;BME280;51265;53.972;12.286;2023-03-03T04:25:24;101559.72;;;-1.12;100.00
64827;BME280;51265;53.972;12.286;2023-03-03T04:27:52;101551.84;;;-1.07;100.00
64827;BME280;51265;53.972;12.286;2023-03-03T04:30:21;101552.56;;;-0.91;100.00
64827;BME280;51265;53.972;12.286;2023-03-03T04:32:49;101544.63;;;-0.93;100.00
64827;BME280;51265;53.972;12.286;2023-03-03T04:35:20;101542.09;;;-1.01;100.00
64827;BME280;51265;53.972;12.286;2023-03-03T04:37:46;101548.97;;;-0.98;100.00
64827;BME280;51265;53.972;12.286;2023-03-03T04:40:13;101548.31;;;-1.01;100.00
64827;BME280;51265;53.972;12.286;2023-03-03T04:42:41;101541.91;;;-0.99;100.00
64827;BME280;51265;53.972;12.286;2023-03-03T04:45:10;101557.47;;;-1.02;100.00
64827;BME280;51265;53.972;12.286;2023-03-03T04:47:37;101543.91;;;-1.15;100.00
64827;BME280;51265;53.972;12.286;2023-03-03T04:50:05;101540.81;;;-1.12;100.00
64827;BME280;51265;53.972;12.286;2023-03-03T04:52:32;101537.38;;;-1.27;100.00
64827;BME280;51265;53.972;12.286;2023-03-03T04:54:59;101541.25;;;-1.08;100.00
64827;BME280;51265;53.972;12.286;2023-03-03T04:57:26;101558.91;;;-1.06;100.00
64827;BME280;51265;53.972;12.286;2023-03-03T04:59:53;101552.38;;;-1.24;100.00
64827;BME280;51265;53.972;12.286;2023-03-03T05:02:19;101553.81;;;-1.22;100.00
64827;BME280;51265;53.972;12.286;2023-03-03T05:04:47;101555.16;;;-1.11;100.00
64827;BME280;51265;53.972;12.286;2023-03-03T05:07:13;101549.47;;;-1.23;100.00
64827;BME280;51265;53.972;12.286;2023-03-03T05:09:39;101553.75;;;-1.01;100.00
64827;BME280;51265;53.972;12.286;2023-03-03T05:12:06;101553.66;;;-1.20;100.00
64827;BME280;51265;53.972;12.286;2023-03-03T05:14:32;101560.34;;;-1.10;100.00
64827;BME280;51265;53.972;12.286;2023-03-03T05:16:58;101548.84;;;-1.18;100.00
64827;BME280;51265;53.972;12.286;2023-03-03T05:19:24;101557.47;;;-1.08;100.00
64827;BME280;51265;53.972;12.286;2023-03-03T05:21:51;101557.47;;;-1.08;100.00
64827;BME280;51265;53.972;12.286;2023-03-03T05:24:17;101562.44;;;-1.05;100.00
64827;BME280;51265;53.972;12.286;2023-03-03T05:26:43;101557.47;;;-1.02;100.00
64827;BME280;51265;53.972;12.286;2023-03-03T05:29:10;101566.47;;;-0.94;100.00
64827;BME280;51265;53.972;12.286;2023-03-03T05:31:36;101562.44;;;-1.12;100.00
64827;BME280;51265;53.972;12.286;2023-03-03T05:34:02;101560.84;;;-0.99;100.00
64827;BME280;51265;53.972;12.286;2023-03-03T05:36:28;101568.38;;;-0.88;100.00
64827;BME280;51265;53.972;12.286;2023-03-03T05:38:54;101562.97;;;-0.88;100.00
64827;BME280;51265;53.972;12.286;2023-03-03T05:41:21;101572.94;;;-0.95;100.00
64827;BME280;51265;53.972;12.286;2023-03-03T05:43:47;101580.88;;;-0.87;100.00
64827;BME280;51265;53.972;12.286;2023-03-03T05:46:14;101571.94;;;-0.81;100.00
64827;BME280;51265;53.972;12.286;2023-03-03T05:48:40;101560.97;;;-0.73;100.00
64827;BME280;51265;53.972;12.286;2023-03-03T05:51:06;101553.91;;;-0.67;100.00
64827;BME280;51265;53.972;12.286;2023-03-03T05:53:33;101553.72;;;-0.66;100.00
64827;BME280;51265;53.972;12.286;2023-03-03T05:55:59;101548.47;;;-0.74;100.00
64827;BME280;51265;53.972;12.286;2023-03-03T05:58:26;101563.44;;;-0.78;100.00
64827;BME280;51265;53.972;12.286;2023-03-03T06:00:53;101559.06;;;-0.79;100.00
64827;BME280;51265;53.972;12.286;2023-03-03T06:03:19;101555.50;;;-0.86;100.00
64827;BME280;51265;53.972;12.286;2023-03-03T06:05:45;101553.78;;;-0.94;100.00
64827;BME280;51265;53.972;12.286;2023-03-03T06:08:11;101550.25;;;-0.94;100.00
64827;BME280;51265;53.972;12.286;2023-03-03T06:10:37;101560.41;;;-1.03;100.00
64827;BME280;51265;53.972;12.286;2023-03-03T06:13:06;101557.88;;;-1.05;100.00
64827;BME280;51265;53.972;12.286;2023-03-03T06:15:32;101565.03;;;-0.90;100.00
64827;BME280;51265;53.972;12.286;2023-03-03T06:17:58;101557.16;;;-0.85;100.00
64827;BME280;51265;53.972;12.286;2023-03-03T06:20:24;101563.88;;;-0.74;100.00
64827;BME280;51265;53.972;12.286;2023-03-03T06:22:51;101570.50;;;-0.77;100.00
64827;BME280;51265;53.972;12.286;2023-03-03T06:25:17;101568.88;;;-0.71;100.00
64827;BME280;51265;53.972;12.286;2023-03-03T06:27:43;101578.47;;;-0.69;100.00
64827;BME280;51265;53.972;12.286;2023-03-03T06:30:10;101560.34;;;-0.75;100.00
64827;BME280;51265;53.972;12.286;2023-03-03T06:32:36;101570.16;;;-0.61;100.00
64827;BME280;51265;53.972;12.286;2023-03-03T06:35:03;101576.69;;;-0.90;100.00
64827;BME280;51265;53.972;12.286;2023-03-03T06:37:29;101577.53;;;-0.89;100.00
64827;BME280;51265;53.972;12.286;2023-03-03T06:39:55;101572.81;;;-0.74;100.00
64827;BME280;51265;53.972;12.286;2023-03-03T06:42:21;101580.59;;;-0.58;100.00
64827;BME280;51265;53.972;12.286;2023-03-03T06:44:49;101578.50;;;-0.56;100.00
64827;BME280;51265;53.972;12.286;2023-03-03T06:47:16;101576.88;;;-0.50;100.00
64827;BME280;51265;53.972;12.286;2023-03-03T06:49:42;101566.38;;;-0.73;100.00
64827;BME280;51265;53.972;12.286;2023-03-03T06:52:19;101565.03;;;-0.90;100.00
64827;BME280;51265;53.972;12.286;2023-03-03T06:54:48;101559.78;;;-0.98;100.00
64827;BME280;51265;53.972;12.286;2023-03-03T06:57:29;101576.75;;;-0.83;100.00
64827;BME280;51265;53.972;12.286;2023-03-03T07:00:15;101576.75;;;-0.83;100.00
64827;BME280;51265;53.972;12.286;2023-03-03T07:02:42;101585.91;;;-0.78;100.00
64827;BME280;51265;53.972;12.286;2023-03-03T07:05:15;101596.59;;;-0.63;100.00
64827;BME280;51265;53.972;12.286;2023-03-03T07:07:42;101586.97;;;-0.72;100.00
64827;BME280;51265;53.972;12.286;2023-03-03T07:10:19;101585.09;;;-0.78;100.00
64827;BME280;51265;53.972;12.286;2023-03-03T07:12:47;101589.22;;;-0.82;100.00
64827;BME280;51265;53.972;12.286;2023-03-03T07:15:20;101595.69;;;-0.83;100.00
64827;BME280;51265;53.972;12.286;2023-03-03T07:17:48;101605.97;;;-0.59;100.00
64827;BME280;51265;53.972;12.286;2023-03-03T07:20:21;101612.59;;;-0.68;100.00
64827;BME280;51265;53.972;12.286;2023-03-03T07:22:49;101617.03;;;-0.54;100.00
64827;BME280;51265;53.972;12.286;2023-03-03T07:25:25;101612.25;;;-0.52;100.00
64827;BME280;51265;53.972;12.286;2023-03-03T07:27:59;101613.91;;;-0.51;100.00
64827;BME280;51265;53.972;12.286;2023-03-03T07:30:28;101619.22;;;-0.29;100.00
64827;BME280;51265;53.972;12.286;2023-03-03T07:32:57;101616.94;;;-0.32;100.00
64827;BME280;51265;53.972;12.286;2023-03-03T07:35:41;101626.72;;;-0.31;100.00
64827;BME280;51265;53.972;12.286;2023-03-03T07:38:32;101624.75;;;-0.51;100.00
64827;BME280;51265;53.972;12.286;2023-03-03T07:41:01;101624.41;;;-0.34;100.00
64827;BME280;51265;53.972;12.286;2023-03-03T07:43:37;101626.91;;;-0.33;100.00
64827;BME280;51265;53.972;12.286;2023-03-03T07:48:41;101633.25;;;-0.06;100.00
64827;BME280;51265;53.972;12.286;2023-03-03T07:51:15;101637.88;;;0.01;100.00
64827;BME280;51265;53.972;12.286;2023-03-03T07:53:44;101642.03;;;0.10;100.00
64827;BME280;51265;53.972;12.286;2023-03-03T07:58:47;101629.50;;;-0.05;100.00
64827;BME280;51265;53.972;12.286;2023-03-03T08:01:35;101623.47;;;-0.07;100.00
64827;BME280;51265;53.972;12.286;2023-03-03T08:04:21;101616.78;;;-0.11;100.00
64827;BME280;51265;53.972;12.286;2023-03-03T08:06:55;101631.22;;;0.16;100.00
64827;BME280;51265;53.972;12.286;2023-03-03T08:09:38;101625.41;;;0.26;100.00
64827;BME280;51265;53.972;12.286;2023-03-03T08:14:36;101625.44;;;0.53;100.00
64827;BME280;51265;53.972;12.286;2023-03-03T08:17:23;101620.44;;;0.76;100.00
64827;BME280;51265;53.972;12.286;2023-03-03T08:19:53;101620.63;;;0.68;100.00
64827;BME280;51265;53.972;12.286;2023-03-03T08:22:32;101611.66;;;0.47;100.00
64827;BME280;51265;53.972;12.286;2023-03-03T08:25:00;101609.78;;;0.41;100.00
64827;BME280;51265;53.972;12.286;2023-03-03T08:27:27;101609.38;;;0.44;100.00
64827;BME280;51265;53.972;12.286;2023-03-03T08:29:53;101606.25;;;0.47;100.00
64827;BME280;51265;53.972;12.286;2023-03-03T08:32:19;101612.06;;;0.58;100.00
64827;BME280;51265;53.972;12.286;2023-03-03T08:34:45;101614.56;;;0.79;100.00
64827;BME280;51265;53.972;12.286;2023-03-03T08:37:11;101611.66;;;1.01;100.00
64827;BME280;51265;53.972;12.286;2023-03-03T08:39:38;101602.03;;;1.05;100.00
64827;BME280;51265;53.972;12.286;2023-03-03T08:42:04;101606.44;;;0.66;100.00
64827;BME280;51265;53.972;12.286;2023-03-03T08:44:30;101609.16;;;0.72;100.00
64827;BME280;51265;53.972;12.286;2023-03-03T08:46:56;101594.13;;;0.90;100.00
64827;BME280;51265;53.972;12.286;2023-03-03T08:49:22;101596.44;;;0.73;100.00
64827;BME280;51265;53.972;12.286;2023-03-03T08:51:48;101605.31;;;1.20;100.00
64827;BME280;51265;53.972;12.286;2023-03-03T08:54:14;101597.72;;;1.48;100.00
64827;BME280;51265;53.972;12.286;2023-03-03T08:56:41;101589.88;;;1.27;100.00
64827;BME280;51265;53.972;12.286;2023-03-03T08:59:07;101591.41;;;1.55;100.00
64827;BME280;51265;53.972;12.286;2023-03-03T09:01:33;101596.84;;;1.55;100.00
64827;BME280;51265;53.972;12.286;2023-03-03T09:04:00;101603.16;;;1.48;100.00
64827;BME280;51265;53.972;12.286;2023-03-03T09:06:26;101592.16;;;1.75;100.00
64827;BME280;51265;53.972;12.286;2023-03-03T09:08:52;101590.75;;;1.66;100.00
64827;BME280;51265;53.972;12.286;2023-03-03T09:11:27;101595.53;;;1.70;100.00
64827;BME280;51265;53.972;12.286;2023-03-03T09:14:11;101597.47;;;2.02;100.00
64827;BME280;51265;53.972;12.286;2023-03-03T09:16:41;101595.13;;;1.67;100.00
64827;BME280;51265;53.972;12.286;2023-03-03T09:19:31;101599.22;;;1.89;100.00
64827;BME280;51265;53.972;12.286;2023-03-03T09:22:02;101594.09;;;1.68;100.00
64827;BME280;51265;53.972;12.286;2023-03-03T09:24:37;101587.53;;;1.82;100.00
64827;BME280;51265;53.972;12.286;2023-03-03T09:27:12;101605.06;;;1.86;100.00
64827;BME280;51265;53.972;12.286;2023-03-03T09:29:42;101586.94;;;2.12;100.00
64827;BME280;51265;53.972;12.286;2023-03-03T09:32:32;101587.81;;;2.06;100.00
64827;BME280;51265;53.972;12.286;2023-03-03T09:35:03;101592.38;;;2.12;100.00
64827;BME280;51265;53.972;12.286;2023-03-03T09:37:48;101591.94;;;2.15;100.00
64827;BME280;51265;53.972;12.286;2023-03-03T09:40:37;101585.41;;;1.91;100.00
64827;BME280;51265;53.972;12.286;2023-03-03T09:46:10;101598.25;;;2.40;100.00
64827;BME280;51265;53.972;12.286;2023-03-03T09:48:52;101599.44;;;3.13;100.00
64827;BME280;51265;53.972;12.286;2023-03-03T09:51:40;101584.63;;;2.90;100.00
64827;BME280;51265;53.972;12.286;2023-03-03T09:54:38;101592.53;;;2.92;100.00
64827;BME280;51265;53.972;12.286;2023-03-03T09:57:16;101588.72;;;2.99;100.00
64827;BME280;51265;53.972;12.286;2023-03-03T10:00:13;101585.41;;;2.97;100.00
64827;BME280;51265;53.972;12.286;2023-03-03T10:07:59;101587.38;;;3.27;100.00
64827;BME280;51265;53.972;12.286;2023-03-03T10:13:24;101585.25;;;3.47;100.00
64827;BME280;51265;53.972;12.286;2023-03-03T10:21:39;101562.47;;;3.42;100.00
64827;BME280;51265;53.972;12.286;2023-03-03T10:29:47;101553.19;;;2.94;100.00
64827;BME280;51265;53.972;12.286;2023-03-03T10:35:27;101561.94;;;3.33;100.00
64827;BME280;51265;53.972;12.286;2023-03-03T10:40:49;101547.78;;;2.88;100.00
64827;BME280;51265;53.972;12.286;2023-03-03T10:49:02;101526.56;;;3.33;100.00
64827;BME280;51265;53.972;12.286;2023-03-03T10:54:33;101515.09;;;2.94;100.00
64827;BME280;51265;53.972;12.286;2023-03-03T10:59:51;101518.84;;;3.12;100.00
64827;BME280;51265;53.972;12.286;2023-03-03T11:02:30;101514.91;;;3.44;100.00
64827;BME280;51265;53.972;12.286;2023-03-03T11:07:49;101496.91;;;3.43;100.00
64827;BME280;51265;53.972;12.286;2023-03-03T11:13:48;101478.75;;;3.37;100.00
64827;BME280;51265;53.972;12.286;2023-03-03T11:21:49;101462.31;;;3.14;100.00
64827;BME280;51265;53.972;12.286;2023-03-03T11:27:08;101455.22;;;2.58;100.00
64827;BME280;51265;53.972;12.286;2023-03-03T11:29:51;101473.34;;;2.82;100.00
64827;BME280;51265;53.972;12.286;2023-03-03T11:35:28;101468.50;;;2.66;100.00
64827;BME280;51265;53.972;12.286;2023-03-03T11:40:36;101482.25;;;2.71;100.00
64827;BME280;51265;53.972;12.286;2023-03-03T11:43:18;101489.38;;;2.72;100.00
64827;BME280;51265;53.972;12.286;2023-03-03T11:45:53;101475.88;;;2.40;100.00
64827;BME280;51265;53.972;12.286;2023-03-03T11:53:35;101481.31;;;2.40;100.00
64827;BME280;51265;53.972;12.286;2023-03-03T11:56:22;101492.53;;;2.87;100.00
64827;BME280;51265;53.972;12.286;2023-03-03T12:01:48;101484.16;;;3.07;100.00
64827;BME280;51265;53.972;12.286;2023-03-03T12:04:39;101467.91;;;2.82;100.00
64827;BME280;51265;53.972;12.286;2023-03-03T12:07:30;101459.06;;;2.50;100.00
64827;BME280;51265;53.972;12.286;2023-03-03T12:12:46;101452.47;;;2.39;100.00
64827;BME280;51265;53.972;12.286;2023-03-03T12:15:21;101460.63;;;2.39;100.00
64827;BME280;51265;53.972;12.286;2023-03-03T12:25:47;101449.72;;;2.21;100.00
64827;BME280;51265;53.972;12.286;2023-03-03T12:28:24;101439.03;;;2.01;100.00
64827;BME280;51265;53.972;12.286;2023-03-03T12:33:57;101450.19;;;2.18;100.00
64827;BME280;51265;53.972;12.286;2023-03-03T12:41:44;101430.63;;;2.09;100.00
64827;BME280;51265;53.972;12.286;2023-03-03T12:44:24;101425.34;;;1.89;100.00
64827;BME280;51265;53.972;12.286;2023-03-03T12:47:05;101431.22;;;1.86;100.00
64827;BME280;51265;53.972;12.286;2023-03-03T12:49:44;101422.19;;;1.67;100.00
64827;BME280;51265;53.972;12.286;2023-03-03T12:55:47;101419.75;;;1.53;100.00
64827;BME280;51265;53.972;12.286;2023-03-03T12:58:40;101415.88;;;1.67;100.00
64827;BME280;51265;53.972;12.286;2023-03-03T13:04:37;101409.16;;;1.44;100.00
64827;BME280;51265;53.972;12.286;2023-03-03T13:07:18;101422.66;;;1.58;100.00
64827;BME280;51265;53.972;12.286;2023-03-03T13:10:03;101412.69;;;1.52;100.00
64827;BME280;51265;53.972;12.286;2023-03-03T13:15:19;101407.25;;;1.52;100.00
64827;BME280;51265;53.972;12.286;2023-03-03T13:17:55;101399.31;;;1.75;100.00
64827;BME280;51265;53.972;12.286;2023-03-03T13:20:36;101404.75;;;1.75;100.00
64827;BME280;51265;53.972;12.286;2023-03-03T13:31:00;101397.47;;;2.19;100.00
64827;BME280;51265;53.972;12.286;2023-03-03T13:33:29;101379.16;;;1.89;100.00
64827;BME280;51265;53.972;12.286;2023-03-03T13:35:58;101378.09;;;1.90;100.00
64827;BME280;51265;53.972;12.286;2023-03-03T13:38:45;101376.31;;;2.03;100.00
64827;BME280;51265;53.972;12.286;2023-03-03T13:41:22;101376.41;;;2.33;100.00
64827;BME280;51265;53.972;12.286;2023-03-03T13:43:54;101366.69;;;2.43;100.00
64827;BME280;51265;53.972;12.286;2023-03-03T13:52:00;101339.09;;;2.21;100.00
64827;BME280;51265;53.972;12.286;2023-03-03T14:07:58;101322.91;;;2.63;100.00
64827;BME280;51265;53.972;12.286;2023-03-03T14:10:28;101320.38;;;2.68;100.00
64827;BME280;51265;53.972;12.286;2023-03-03T14:13:01;101314.03;;;2.86;100.00
64827;BME280;51265;53.972;12.286;2023-03-03T14:15:32;101305.06;;;2.86;100.00
64827;BME280;51265;53.972;12.286;2023-03-03T14:18:13;101300.19;;;2.76;100.00
64827;BME280;51265;53.972;12.286;2023-03-03T14:20:46;101293.28;;;2.73;100.00
64827;BME280;51265;53.972;12.286;2023-03-03T14:23:22;101292.16;;;2.81;100.00
64827;BME280;51265;53.972;12.286;2023-03-03T14:26:00;101296.94;;;2.97;100.00
64827;BME280;51265;53.972;12.286;2023-03-03T14:28:38;101282.63;;;3.02;100.00
64827;BME280;51265;53.972;12.286;2023-03-03T14:31:23;101282.50;;;3.09;100.00
64827;BME280;51265;53.972;12.286;2023-03-03T14:34:11;101273.75;;;3.07;100.00
64827;BME280;51265;53.972;12.286;2023-03-03T14:36:41;101271.06;;;3.18;100.00
64827;BME280;51265;53.972;12.286;2023-03-03T14:39:32;101264.19;;;3.16;100.00
64827;BME280;51265;53.972;12.286;2023-03-03T14:47:20;101244.44;;;3.20;100.00
64827;BME280;51265;53.972;12.286;2023-03-03T14:49:47;101246.91;;;3.10;100.00
64827;BME280;51265;53.972;12.286;2023-03-03T14:54:43;101234.09;;;2.99;100.00
64827;BME280;51265;53.972;12.286;2023-03-03T14:57:38;101235.06;;;3.05;100.00
64827;BME280;51265;53.972;12.286;2023-03-03T15:00:27;101217.53;;;3.00;100.00
64827;BME280;51265;53.972;12.286;2023-03-03T15:03:19;101210.31;;;2.94;100.00
64827;BME280;51265;53.972;12.286;2023-03-03T15:05:50;101218.28;;;3.19;100.00
64827;BME280;51265;53.972;12.286;2023-03-03T15:08:26;101209.88;;;3.21;100.00
64827;BME280;51265;53.972;12.286;2023-03-03T15:11:11;101198.75;;;3.11;100.00
64827;BME280;51265;53.972;12.286;2023-03-03T15:13:39;101194.13;;;3.11;100.00
64827;BME280;51265;53.972;12.286;2023-03-03T15:16:18;101184.78;;;3.07;100.00
64827;BME280;51265;53.972;12.286;2023-03-03T15:22:21;101159.00;;;3.10;100.00
64827;BME280;51265;53.972;12.286;2023-03-03T15:24:57;101159.56;;;3.00;100.00
64827;BME280;51265;53.972;12.286;2023-03-03T15:27:31;101158.28;;;3.03;100.00
64827;BME280;51265;53.972;12.286;2023-03-03T15:30:38;101165.63;;;3.14;100.00